createdAt,value
2023-03-03T00:02:03.289Z,26.17
2023-03-03T00:04:10.481Z,27.10
2023-03-03T00:06:18.227Z,26.00
2023-03-03T00:08:25.808Z,26.83
2023-03-03T00:10:34.431Z,28.45
2023-03-03T00:12:49.413Z,30.20
2023-03-03T00:14:56.522Z,29.00
2023-03-03T00:17:09.388Z,35.95
2023-03-03T00:19:20.199Z,33.20
2023-03-03T00:21:30.314Z,32.60
2023-03-03T00:23:40.092Z,33.38
2023-03-03T00:25:49.730Z,34.20
2023-03-03T00:27:56.563Z,35.30
2023-03-03T00:30:03.944Z,37.70
2023-03-03T00:32:26.996Z,35.85
2023-03-03T00:34:34.282Z,36.25
2023-03-03T00:36:42.195Z,35.72
2023-03-03T00:38:50.486Z,35.72
2023-03-03T00:40:58.847Z,34.65
2023-03-03T00:43:16.885Z,32.78
2023-03-03T00:45:31.662Z,30.00
2023-03-03T00:47:41.280Z,28.50
2023-03-03T00:49:48.208Z,25.88
2023-03-03T00:51:55.337Z,25.52
2023-03-03T00:54:02.430Z,25.35
2023-03-03T00:56:11.441Z,25.45
2023-03-03T00:58:19.544Z,25.02
2023-03-03T01:00:27.492Z,25.73
2023-03-03T01:02:35.025Z,25.80
2023-03-03T01:04:43.853Z,26.80
2023-03-03T01:06:50.788Z,26.50
2023-03-03T01:08:58.422Z,25.63
2023-03-03T01:11:10.877Z,25.63
2023-03-03T01:13:18.062Z,24.80
2023-03-03T01:15:24.932Z,24.70
2023-03-03T01:17:32.268Z,25.10
2023-03-03T01:19:39.145Z,24.20
2023-03-03T01:21:46.272Z,24.30
2023-03-03T01:23:53.150Z,26.63
2023-03-03T01:26:00.430Z,26.88
2023-03-03T01:28:09.607Z,26.08
2023-03-03T01:30:17.711Z,26.75
2023-03-03T01:32:24.929Z,25.05
2023-03-03T01:34:32.075Z,25.27
2023-03-03T01:36:39.563Z,24.50
2023-03-03T01:38:47.052Z,24.70
2023-03-03T01:40:57.818Z,24.20
2023-03-03T01:43:05.459Z,26.17
2023-03-03T01:45:19.312Z,24.80
2023-03-03T01:47:37.644Z,26.00
2023-03-03T01:49:48.151Z,25.10
2023-03-03T01:51:57.892Z,25.42
2023-03-03T01:54:07.473Z,23.90
2023-03-03T01:56:15.230Z,26.02
2023-03-03T01:58:28.244Z,24.13
2023-03-03T02:00:41.060Z,24.15
2023-03-03T02:02:48.803Z,22.58
2023-03-03T02:04:55.831Z,23.10
2023-03-03T02:07:09.406Z,23.08
2023-03-03T02:09:24.479Z,23.70
2023-03-03T02:11:35.362Z,23.13
2023-03-03T02:13:42.172Z,22.73
2023-03-03T02:15:51.155Z,22.33
2023-03-03T02:17:59.863Z,22.33
2023-03-03T02:20:15.547Z,22.75
2023-03-03T02:22:27.034Z,23.15
2023-03-03T02:24:37.999Z,23.50
2023-03-03T02:26:48.669Z,23.65
2023-03-03T02:28:55.392Z,24.10
2023-03-03T02:31:03.846Z,24.67
2023-03-03T02:33:10.978Z,24.00
2023-03-03T02:35:39.726Z,22.80
2023-03-03T02:37:46.727Z,22.05
2023-03-03T02:39:53.772Z,23.17
2023-03-03T02:42:06.279Z,23.35
2023-03-03T02:44:22.812Z,22.42
2023-03-03T02:46:29.871Z,21.73
2023-03-03T02:48:37.089Z,23.25
2023-03-03T02:50:43.809Z,21.88
2023-03-03T02:52:51.088Z,21.10
2023-03-03T02:54:58.731Z,20.95
2023-03-03T02:57:08.319Z,20.90
2023-03-03T02:59:15.029Z,21.05
2023-03-03T03:01:26.087Z,20.63
2023-03-03T03:03:34.684Z,20.85
2023-03-03T03:05:44.877Z,21.33
2023-03-03T03:07:51.802Z,21.42
2023-03-03T03:09:58.991Z,22.52
2023-03-03T03:12:10.065Z,22.05
2023-03-03T03:14:18.432Z,22.15
2023-03-03T03:16:25.468Z,21.38
2023-03-03T03:18:32.627Z,21.05
2023-03-03T03:20:42.675Z,22.85
2023-03-03T03:22:49.950Z,20.92
2023-03-03T03:24:57.556Z,21.05
2023-03-03T03:27:05.556Z,21.60
2023-03-03T03:29:14.102Z,20.23
2023-03-03T03:31:22.012Z,21.48
2023-03-03T03:33:29.512Z,20.83
2023-03-03T03:35:37.969Z,19.92
2023-03-03T03:37:44.874Z,20.10
2023-03-03T03:39:52.173Z,20.48
2023-03-03T03:41:59.866Z,20.30
2023-03-03T03:44:07.254Z,21.15
2023-03-03T03:46:15.931Z,20.23
2023-03-03T03:48:23.768Z,20.42
2023-03-03T03:50:31.052Z,20.02
2023-03-03T03:52:38.181Z,19.83
2023-03-03T03:54:45.421Z,20.17
2023-03-03T03:56:52.141Z,20.25
2023-03-03T03:58:59.014Z,20.92
2023-03-03T04:01:07.741Z,19.63
2023-03-03T04:03:21.919Z,20.00
2023-03-03T04:05:29.677Z,20.30
2023-03-03T04:07:36.960Z,18.85
2023-03-03T04:09:43.833Z,20.35
2023-03-03T04:11:51.014Z,18.73
2023-03-03T04:13:58.301Z,20.00
2023-03-03T04:16:06.498Z,20.27
2023-03-03T04:18:14.663Z,20.95
2023-03-03T04:20:23.995Z,20.45
2023-03-03T04:22:31.496Z,19.65
2023-03-03T04:24:38.769Z,20.10
2023-03-03T04:26:45.695Z,19.95
2023-03-03T04:28:53.337Z,18.73
2023-03-03T04:31:01.590Z,18.58
2023-03-03T04:33:10.977Z,19.40
2023-03-03T04:35:20.644Z,18.73
2023-03-03T04:37:32.417Z,18.40
2023-03-03T04:39:39.900Z,18.58
2023-03-03T04:41:47.074Z,19.38
2023-03-03T04:43:54.001Z,19.75
2023-03-03T04:46:01.043Z,18.70
2023-03-03T04:48:08.629Z,20.25
2023-03-03T04:50:16.734Z,17.83
2023-03-03T04:52:23.469Z,18.77
2023-03-03T04:54:32.365Z,18.70
2023-03-03T04:56:39.088Z,19.25
2023-03-03T04:58:46.731Z,19.17
2023-03-03T05:00:58.932Z,17.90
2023-03-03T05:03:08.518Z,18.02
2023-03-03T05:05:15.647Z,18.17
2023-03-03T05:07:22.672Z,17.13
2023-03-03T05:09:31.410Z,18.48
2023-03-03T05:11:38.720Z,18.73
2023-03-03T05:13:50.919Z,18.23
2023-03-03T05:15:58.930Z,16.90
2023-03-03T05:18:05.653Z,17.45
2023-03-03T05:20:14.207Z,17.80
2023-03-03T05:22:20.975Z,16.90
2023-03-03T05:24:28.197Z,17.05
2023-03-03T05:26:36.675Z,16.45
2023-03-03T05:28:43.850Z,16.75
2023-03-03T05:30:50.928Z,17.02
2023-03-03T05:32:57.907Z,17.38
2023-03-03T05:35:05.791Z,16.17
2023-03-03T05:37:12.934Z,16.38
2023-03-03T05:39:19.964Z,17.30
2023-03-03T05:41:27.044Z,17.77
2023-03-03T05:43:35.454Z,17.83
2023-03-03T05:45:42.376Z,17.55
2023-03-03T05:47:49.307Z,17.85
2023-03-03T05:49:56.634Z,16.23
2023-03-03T05:52:04.077Z,16.23
2023-03-03T05:54:11.233Z,16.60
2023-03-03T05:56:18.082Z,16.80
2023-03-03T05:58:25.477Z,16.40
2023-03-03T06:00:34.238Z,16.35
2023-03-03T06:02:41.442Z,16.95
2023-03-03T06:04:48.193Z,16.50
2023-03-03T06:06:55.327Z,15.98
2023-03-03T06:09:02.148Z,15.80
2023-03-03T06:11:09.586Z,15.77
2023-03-03T06:13:16.463Z,16.02
2023-03-03T06:15:23.535Z,14.52
2023-03-03T06:17:32.206Z,13.88
2023-03-03T06:22:00.680Z,15.80
2023-03-03T06:24:08.189Z,15.90
2023-03-03T06:26:14.860Z,14.52
2023-03-03T06:28:22.276Z,14.20
2023-03-03T06:32:52.376Z,15.05
2023-03-03T06:34:58.994Z,15.48
2023-03-03T06:37:06.075Z,14.52
2023-03-03T06:39:12.947Z,14.23
2023-03-03T06:41:20.082Z,14.18
2023-03-03T06:43:27.003Z,14.98
2023-03-03T06:45:34.222Z,15.98
2023-03-03T06:47:41.110Z,14.52
2023-03-03T06:49:53.570Z,14.65
2023-03-03T06:52:02.684Z,13.23
2023-03-03T06:54:15.711Z,14.38
2023-03-03T06:56:22.432Z,15.02
2023-03-03T06:58:30.482Z,13.98
2023-03-03T07:00:37.926Z,14.30
2023-03-03T07:02:44.906Z,13.85
2023-03-03T07:04:53.414Z,13.80
2023-03-03T07:07:01.202Z,14.15
2023-03-03T07:09:12.085Z,14.10
2023-03-03T07:11:22.286Z,14.23
2023-03-03T07:13:30.904Z,13.45
2023-03-03T07:15:39.160Z,13.77
2023-03-03T07:17:50.914Z,14.63
2023-03-03T07:20:00.287Z,13.82
2023-03-03T07:22:17.965Z,13.48
2023-03-03T07:24:31.040Z,13.20
2023-03-03T07:26:37.752Z,13.23
2023-03-03T07:28:46.986Z,13.40
2023-03-03T07:30:53.999Z,12.68
2023-03-03T07:33:02.648Z,13.35
2023-03-03T07:35:35.320Z,13.40
2023-03-03T07:37:44.281Z,13.60
2023-03-03T07:39:53.409Z,13.45
2023-03-03T07:42:20.360Z,13.35
2023-03-03T07:44:39.158Z,13.93
2023-03-03T07:46:49.925Z,12.57
2023-03-03T07:48:57.721Z,13.32
2023-03-03T07:51:09.261Z,15.30
2023-03-03T07:53:27.448Z,13.73
2023-03-03T07:55:44.772Z,15.07
2023-03-03T07:57:53.432Z,13.93
2023-03-03T08:00:06.064Z,13.82
2023-03-03T08:02:36.622Z,14.90
2023-03-03T08:04:46.092Z,14.75
2023-03-03T08:06:58.976Z,15.55
2023-03-03T08:09:16.906Z,14.20
2023-03-03T08:11:23.636Z,14.98
2023-03-03T08:13:39.825Z,14.35
2023-03-03T08:15:47.947Z,14.88
2023-03-03T08:17:57.244Z,14.63
2023-03-03T08:20:04.539Z,14.52
2023-03-03T08:22:19.338Z,14.30
2023-03-03T08:24:26.055Z,14.60
2023-03-03T08:26:33.084Z,14.75
2023-03-03T08:28:39.798Z,14.45
2023-03-03T08:30:47.276Z,15.38
2023-03-03T08:32:54.129Z,14.75
2023-03-03T08:35:01.452Z,14.07
2023-03-03T08:37:08.474Z,14.50
2023-03-03T08:39:17.453Z,14.10
2023-03-03T08:41:24.324Z,12.85
2023-03-03T08:43:31.439Z,14.27
2023-03-03T08:45:38.840Z,13.90
2023-03-03T08:47:45.925Z,15.30
2023-03-03T08:49:52.837Z,14.63
2023-03-03T08:52:01.768Z,15.98
2023-03-03T08:54:08.744Z,14.35
2023-03-03T08:56:17.603Z,14.57
2023-03-03T08:58:34.693Z,15.18
2023-03-03T09:00:43.096Z,14.75
2023-03-03T09:02:50.426Z,15.23
2023-03-03T09:04:57.812Z,16.02
2023-03-03T09:07:04.787Z,15.68
2023-03-03T09:09:12.182Z,16.38
2023-03-03T09:11:27.195Z,17.88
2023-03-03T09:13:35.152Z,17.10
2023-03-03T09:15:42.790Z,17.95
2023-03-03T09:17:50.892Z,17.35
2023-03-03T09:20:03.806Z,17.10
2023-03-03T09:22:23.166Z,17.98
2023-03-03T09:24:31.990Z,18.02
2023-03-03T09:26:50.366Z,17.27
2023-03-03T09:28:57.974Z,17.90
2023-03-03T09:31:07.671Z,18.00
2023-03-03T09:33:34.454Z,17.73
2023-03-03T09:35:43.523Z,17.58
2023-03-03T09:37:53.991Z,17.48
2023-03-03T09:40:01.938Z,17.73
2023-03-03T09:42:31.442Z,18.20
2023-03-03T09:45:10.732Z,18.58
2023-03-03T09:47:34.602Z,18.05
2023-03-03T09:49:52.279Z,18.02
2023-03-03T09:52:09.144Z,17.70
2023-03-03T09:54:27.663Z,17.83
2023-03-03T09:56:38.756Z,17.30
2023-03-03T09:58:59.663Z,17.83
2023-03-03T10:01:21.432Z,18.90
2023-03-03T10:04:10.178Z,18.00
2023-03-03T10:06:25.312Z,17.58
2023-03-03T10:08:46.304Z,17.92
2023-03-03T10:11:07.268Z,16.23
2023-03-03T10:13:23.820Z,16.73
2023-03-03T10:15:42.980Z,17.88
2023-03-03T10:17:53.951Z,18.10
2023-03-03T10:20:17.721Z,18.25
2023-03-03T10:22:28.438Z,17.92
2023-03-03T10:24:46.487Z,17.83
2023-03-03T10:27:13.826Z,19.10
2023-03-03T10:29:35.103Z,19.35
2023-03-03T10:31:53.422Z,20.02
2023-03-03T10:34:07.019Z,19.27
2023-03-03T10:36:43.327Z,19.30
2023-03-03T10:39:00.443Z,19.30
2023-03-03T10:41:22.063Z,18.15
2023-03-03T10:43:48.598Z,19.08
2023-03-03T10:46:22.818Z,18.55
2023-03-03T10:48:47.555Z,18.88
2023-03-03T10:51:01.491Z,18.15
2023-03-03T10:53:24.448Z,18.95
2023-03-03T10:55:42.125Z,18.55
2023-03-03T10:57:58.818Z,18.17
2023-03-03T11:00:20.217Z,18.40
2023-03-03T11:02:34.074Z,18.90
2023-03-03T11:04:58.822Z,17.65
2023-03-03T11:07:13.373Z,18.23
2023-03-03T11:09:34.032Z,17.77
2023-03-03T11:11:46.029Z,17.70
2023-03-03T11:13:59.042Z,18.15
2023-03-03T11:16:19.111Z,19.70
2023-03-03T11:18:40.798Z,21.98
2023-03-03T11:23:08.782Z,19.77
2023-03-03T11:25:28.304Z,19.25
2023-03-03T11:27:58.011Z,18.63
2023-03-03T11:30:32.157Z,17.98
2023-03-03T11:32:46.063Z,20.05
2023-03-03T11:35:02.564Z,19.45
2023-03-03T11:37:14.822Z,22.10
2023-03-03T11:41:40.961Z,18.85
2023-03-03T11:43:52.287Z,17.92
2023-03-03T11:46:03.133Z,18.65
2023-03-03T11:48:17.820Z,19.67
2023-03-03T11:50:28.782Z,20.23
2023-03-03T11:52:47.176Z,20.25
2023-03-03T11:54:59.323Z,19.40
2023-03-03T11:59:41.282Z,20.40
2023-03-03T12:01:55.987Z,21.40
2023-03-03T12:04:06.252Z,24.35
2023-03-03T12:06:26.487Z,22.30
2023-03-03T12:08:56.858Z,22.40
2023-03-03T12:11:11.050Z,23.55
2023-03-03T12:13:27.503Z,24.23
2023-03-03T12:15:41.871Z,26.48
2023-03-03T12:18:28.045Z,28.17
2023-03-03T12:20:42.763Z,28.65
2023-03-03T12:23:06.994Z,27.60
2023-03-03T12:25:37.288Z,28.02
2023-03-03T12:27:54.005Z,28.27
2023-03-03T12:30:14.778Z,29.00
2023-03-03T12:32:36.731Z,28.83
2023-03-03T12:34:49.563Z,28.85
2023-03-03T12:37:22.548Z,29.88
2023-03-03T12:39:42.429Z,28.83
2023-03-03T12:41:57.536Z,26.92
2023-03-03T12:44:11.474Z,27.90
2023-03-03T12:46:29.730Z,29.58
2023-03-03T12:48:44.900Z,27.48
2023-03-03T12:51:05.504Z,28.65
2023-03-03T12:53:28.245Z,26.67
2023-03-03T12:55:44.628Z,29.95
2023-03-03T12:58:02.876Z,31.35
2023-03-03T13:00:30.600Z,28.73
2023-03-03T13:02:48.876Z,28.10
2023-03-03T13:05:00.971Z,27.20
2023-03-03T13:07:18.398Z,28.85
2023-03-03T13:09:36.835Z,30.42
2023-03-03T13:12:11.098Z,30.50
2023-03-03T13:14:32.017Z,31.75
2023-03-03T13:16:43.466Z,29.80
2023-03-03T13:18:59.221Z,32.45
2023-03-03T13:21:13.542Z,34.15
2023-03-03T13:23:35.762Z,32.90
2023-03-03T13:25:55.159Z,34.58
2023-03-03T13:28:08.914Z,33.78
2023-03-03T13:30:25.494Z,35.10
2023-03-03T13:32:43.035Z,33.55
2023-03-03T13:34:58.622Z,35.05
2023-03-03T13:37:10.411Z,33.08
2023-03-03T13:39:24.008Z,32.50
2023-03-03T13:41:36.452Z,32.38
2023-03-03T13:43:50.283Z,32.75
2023-03-03T13:46:09.853Z,32.28
2023-03-03T13:48:33.634Z,31.77
2023-03-03T13:50:47.262Z,32.72
2023-03-03T13:53:10.318Z,31.70
2023-03-03T13:55:25.993Z,31.20
2023-03-03T13:57:54.779Z,30.58
2023-03-03T14:00:17.057Z,31.60
2023-03-03T14:02:45.441Z,33.03
2023-03-03T14:04:58.232Z,31.25
2023-03-03T14:07:16.744Z,31.33
2023-03-03T14:09:41.806Z,30.48
2023-03-03T14:11:57.639Z,31.20
2023-03-03T14:14:15.170Z,31.17
2023-03-03T14:16:31.611Z,29.98
2023-03-03T14:18:45.559Z,31.92
2023-03-03T14:20:55.460Z,32.20
2023-03-03T14:23:05.488Z,30.77
2023-03-03T14:25:15.554Z,32.00
2023-03-03T14:27:29.543Z,32.17
2023-03-03T14:29:38.822Z,32.78
2023-03-03T14:31:47.556Z,34.20
2023-03-03T14:34:05.986Z,37.33
2023-03-03T14:36:19.670Z,34.63
2023-03-03T14:38:39.383Z,35.92
2023-03-03T14:40:48.564Z,35.58
2023-03-03T14:43:00.108Z,33.83
2023-03-03T14:45:29.347Z,33.92
2023-03-03T14:47:42.928Z,39.08
2023-03-03T14:49:52.312Z,34.30
2023-03-03T14:52:07.236Z,37.95
2023-03-03T14:54:26.080Z,36.03
2023-03-03T14:56:37.953Z,36.03
2023-03-03T14:58:46.289Z,35.85
2023-03-03T15:00:53.991Z,37.58
2023-03-03T15:03:19.915Z,35.80
2023-03-03T15:05:31.554Z,35.88
2023-03-03T15:07:41.823Z,37.33
2023-03-03T15:09:54.447Z,35.38
2023-03-03T15:12:02.512Z,36.80
2023-03-03T15:14:18.515Z,33.30
2023-03-03T15:16:28.686Z,35.03
2023-03-03T15:18:37.258Z,34.13
2023-03-03T15:20:50.627Z,32.20
2023-03-03T15:23:08.520Z,30.70
2023-03-03T15:25:22.901Z,28.38
2023-03-03T15:27:38.997Z,27.13
2023-03-03T15:29:58.221Z,26.88
2023-03-03T15:32:15.829Z,28.13
2023-03-03T15:34:37.227Z,28.58
2023-03-03T15:36:51.193Z,28.05
2023-03-03T15:39:06.617Z,28.83
2023-03-03T15:41:28.080Z,28.30
2023-03-03T15:43:42.662Z,29.48
2023-03-03T15:45:59.533Z,30.00
2023-03-03T15:48:24.821Z,30.67
2023-03-03T15:50:47.306Z,29.70
2023-03-03T15:53:05.145Z,29.98
2023-03-03T15:55:28.504Z,29.80
2023-03-03T15:57:45.769Z,29.25
2023-03-03T16:00:24.789Z,31.77
2023-03-03T16:02:46.195Z,29.80
2023-03-03T16:05:01.423Z,30.27
2023-03-03T16:07:16.337Z,30.02
2023-03-03T16:09:39.904Z,30.30
2023-03-03T16:11:52.920Z,29.10
2023-03-03T16:14:27.241Z,29.33
2023-03-03T16:16:42.486Z,30.23
2023-03-03T16:18:59.930Z,30.73
2023-03-03T16:21:20.885Z,30.10
2023-03-03T16:23:34.825Z,30.17
2023-03-03T16:26:01.158Z,31.58
2023-03-03T16:28:15.408Z,30.88
2023-03-03T16:30:31.240Z,31.42
2023-03-03T16:32:44.621Z,30.88
2023-03-03T16:35:01.120Z,30.42
2023-03-03T16:37:18.953Z,31.33
2023-03-03T16:39:35.863Z,29.92
2023-03-03T16:41:50.672Z,31.98
2023-03-03T16:44:09.630Z,31.95
2023-03-03T16:46:32.638Z,32.22
2023-03-03T16:48:49.087Z,31.08
2023-03-03T16:51:07.632Z,32.75
2023-03-03T16:53:22.442Z,32.28
2023-03-03T16:55:35.365Z,31.55
2023-03-03T16:57:54.114Z,32.95
2023-03-03T17:00:10.629Z,31.50
2023-03-03T17:02:35.454Z,32.25
2023-03-03T17:04:48.924Z,33.95
2023-03-03T17:07:01.898Z,32.90
2023-03-03T17:09:49.271Z,33.83
2023-03-03T17:12:05.361Z,34.80
2023-03-03T17:14:29.795Z,31.95
2023-03-03T17:16:52.420Z,33.97
2023-03-03T17:19:16.773Z,34.33
2023-03-03T17:21:34.757Z,34.22
2023-03-03T17:23:58.840Z,34.88
2023-03-03T17:26:15.540Z,34.38
2023-03-03T17:28:39.261Z,33.55
2023-03-03T17:30:55.502Z,34.67
2023-03-03T17:33:17.480Z,35.05
2023-03-03T17:35:46.577Z,35.72
2023-03-03T17:38:02.007Z,34.70
2023-03-03T17:40:25.672Z,33.53
2023-03-03T17:42:40.072Z,34.72
2023-03-03T17:44:53.552Z,35.08
2023-03-03T17:47:07.706Z,35.40
2023-03-03T17:49:40.480Z,36.30
2023-03-03T17:52:10.036Z,34.42
2023-03-03T17:54:42.462Z,34.22
2023-03-03T17:56:56.710Z,33.33
2023-03-03T17:59:23.863Z,35.25
2023-03-03T18:01:44.034Z,34.03
2023-03-03T18:04:29.459Z,33.75
2023-03-03T18:06:59.628Z,32.67
2023-03-03T18:09:17.532Z,31.48
2023-03-03T18:11:32.723Z,31.02
2023-03-03T18:14:08.143Z,30.13
2023-03-03T18:16:26.741Z,27.58
2023-03-03T18:18:51.845Z,28.08
2023-03-03T18:21:06.866Z,28.50
2023-03-03T18:23:36.521Z,28.15
2023-03-03T18:25:59.162Z,26.58
2023-03-03T18:28:25.598Z,24.90
2023-03-03T18:30:36.258Z,26.48
2023-03-03T18:32:48.253Z,25.77
2023-03-03T18:35:25.981Z,24.85
2023-03-03T18:37:47.526Z,23.60
2023-03-03T18:40:34.585Z,24.80
2023-03-03T18:42:43.306Z,23.85
2023-03-03T18:44:50.739Z,23.55
2023-03-03T18:46:59.878Z,25.67
2023-03-03T18:49:08.590Z,24.70
2023-03-03T18:51:16.635Z,24.08
2023-03-03T18:53:30.425Z,25.55
2023-03-03T18:55:45.751Z,24.83
2023-03-03T18:58:32.867Z,25.60
2023-03-03T19:00:48.389Z,25.13
2023-03-03T19:02:59.210Z,25.63
2023-03-03T19:05:24.364Z,24.93
2023-03-03T19:07:33.331Z,25.83
2023-03-03T19:10:01.622Z,26.02
2023-03-03T19:12:14.582Z,25.35
2023-03-03T19:14:37.321Z,26.02
2023-03-03T19:16:44.395Z,24.42
2023-03-03T19:19:05.714Z,24.48
2023-03-03T19:21:24.819Z,24.35
2023-03-03T19:23:51.206Z,26.38
2023-03-03T19:26:44.728Z,25.67
2023-03-03T19:29:00.298Z,24.67
2023-03-03T19:31:12.804Z,25.48
2023-03-03T19:33:51.760Z,25.48
2023-03-03T19:36:13.864Z,24.90
2023-03-03T19:38:32.054Z,24.95
2023-03-03T19:40:49.221Z,24.85
2023-03-03T19:43:04.645Z,25.20
2023-03-03T19:45:25.958Z,26.17
2023-03-03T19:47:41.229Z,25.67
2023-03-03T19:50:01.270Z,25.33
2023-03-03T19:52:19.247Z,26.05
2023-03-03T19:54:46.967Z,26.17
2023-03-03T19:56:56.088Z,26.73
2023-03-03T19:59:16.382Z,25.98
2023-03-03T20:01:34.996Z,26.05
2023-03-03T20:03:56.195Z,27.33
2023-03-03T20:06:23.851Z,27.30
2023-03-03T20:08:39.170Z,27.30
2023-03-03T20:10:54.032Z,27.45
2023-03-03T20:13:10.740Z,26.20
2023-03-03T20:15:22.833Z,27.02
2023-03-03T20:17:59.612Z,27.48
2023-03-03T20:20:20.876Z,27.48
2023-03-03T20:22:35.784Z,28.00
2023-03-03T20:25:06.722Z,26.85
2023-03-03T20:27:20.609Z,28.15
2023-03-03T20:29:56.106Z,27.40
2023-03-03T20:32:13.151Z,27.73
2023-03-03T20:34:29.418Z,28.50
2023-03-03T20:36:47.585Z,27.45
2023-03-03T20:39:07.540Z,27.58
2023-03-03T20:41:26.236Z,27.92
2023-03-03T20:43:45.453Z,28.20
2023-03-03T20:46:00.414Z,27.15
2023-03-03T20:48:20.651Z,26.58
2023-03-03T20:50:38.382Z,27.00
2023-03-03T20:52:56.472Z,27.60
2023-03-03T20:55:10.851Z,26.85
2023-03-03T20:57:26.093Z,26.98
2023-03-03T20:59:39.160Z,27.80
2023-03-03T21:01:54.231Z,25.48
2023-03-03T21:04:21.363Z,25.95
2023-03-03T21:06:41.771Z,26.10
2023-03-03T21:08:55.401Z,28.10
2023-03-03T21:11:04.582Z,25.35
2023-03-03T21:13:30.503Z,26.15
2023-03-03T21:15:37.946Z,26.42
2023-03-03T21:17:44.819Z,26.77
2023-03-03T21:19:52.054Z,25.60
2023-03-03T21:22:02.444Z,24.88
2023-03-03T21:24:10.611Z,26.00
2023-03-03T21:26:17.430Z,26.17
2023-03-03T21:28:27.287Z,25.40
2023-03-03T21:30:34.094Z,25.75
2023-03-03T21:32:45.699Z,23.92
2023-03-03T21:35:09.296Z,25.90
2023-03-03T21:37:51.553Z,25.63
2023-03-03T21:40:17.060Z,25.55
2023-03-03T21:42:43.954Z,25.67
2023-03-03T21:44:52.155Z,25.92
2023-03-03T21:46:58.983Z,24.80
2023-03-03T21:49:06.419Z,25.58
2023-03-03T21:51:15.086Z,25.02
2023-03-03T21:53:24.829Z,24.90
2023-03-03T21:55:31.653Z,25.38
2023-03-03T21:57:38.682Z,25.45
2023-03-03T21:59:45.605Z,25.70
2023-03-03T22:01:52.537Z,24.23
2023-03-03T22:03:59.919Z,25.85
2023-03-03T22:06:07.056Z,25.02
2023-03-03T22:08:13.821Z,25.15
2023-03-03T22:10:22.641Z,24.77
2023-03-03T22:12:29.361Z,25.77
2023-03-03T22:14:36.338Z,25.85
2023-03-03T22:16:43.520Z,24.95
2023-03-03T22:18:50.547Z,24.48
2023-03-03T22:20:57.525Z,25.05
2023-03-03T22:23:04.450Z,25.50
2023-03-03T22:25:12.145Z,25.35
2023-03-03T22:27:20.725Z,25.17
2023-03-03T22:29:27.637Z,26.00
2023-03-03T22:31:34.924Z,25.55
2023-03-03T22:33:41.853Z,27.67
2023-03-03T22:35:48.990Z,27.77
2023-03-03T22:37:55.802Z,27.67
2023-03-03T22:40:02.931Z,26.33
2023-03-03T22:42:09.707Z,27.00
2023-03-03T22:44:18.474Z,26.30
2023-03-03T22:46:25.321Z,26.70
2023-03-03T22:48:32.683Z,27.27
2023-03-03T22:50:41.315Z,26.95
2023-03-03T22:52:48.327Z,25.52
2023-03-03T22:54:55.254Z,26.17
2023-03-03T22:57:02.335Z,25.73
2023-03-03T22:59:09.221Z,26.98
2023-03-03T23:01:18.089Z,26.45
2023-03-03T23:03:25.514Z,26.15
2023-03-03T23:05:32.362Z,28.33
2023-03-03T23:07:40.290Z,26.60
2023-03-03T23:09:47.159Z,27.15
2023-03-03T23:11:53.932Z,28.67
2023-03-03T23:14:00.806Z,28.38
2023-03-03T23:16:08.076Z,28.58
2023-03-03T23:18:16.703Z,27.67
2023-03-03T23:20:26.804Z,28.02
2023-03-03T23:22:33.780Z,29.45
2023-03-03T23:24:40.445Z,31.80
2023-03-03T23:26:47.780Z,30.05
2023-03-03T23:28:54.506Z,30.83
2023-03-03T23:31:01.455Z,29.67
2023-03-03T23:33:08.250Z,28.50
2023-03-03T23:35:17.338Z,29.90
2023-03-03T23:37:24.254Z,28.85
2023-03-03T23:39:31.233Z,29.00
2023-03-03T23:41:39.389Z,29.92
2023-03-03T23:43:46.464Z,29.33
2023-03-03T23:45:53.259Z,29.85
2023-03-03T23:48:00.315Z,29.55
2023-03-03T23:50:07.709Z,30.48
2023-03-03T23:52:16.780Z,30.73
2023-03-03T23:54:23.450Z,31.50
2023-03-03T23:56:30.483Z,32.30
2023-03-03T23:58:37.199Z,30.77
